Time;durP1;ratioP1;P1;durP2;ratioP2;P2;SDS_P1;SDS_P2;PMS_P1;PMS_P2;Temp;Humidity;BMP_temperature;BMP_pressure;BME280_temperature;BME280_humidity;BME280_pressure;Samples;Min_cycle;Max_cycle;Signal;HPM_P1;HPM_P2
2022/06/22 00:00:19;;;;;;;11.40;6.65;;;;;;;10.74;100.00;100945.19;5006551;28;20030;-74
2022/06/22 00:02:48;;;;;;;8.60;6.30;;;;;;;10.71;100.00;100945.50;5005700;28;20402;-73
2022/06/22 00:05:22;;;;;;;9.65;6.53;;;;;;;10.75;100.00;100949.53;5006671;28;20660;-73
2022/06/22 00:07:58;;;;;;;11.25;6.68;;;;;;;10.72;100.00;100956.03;5004887;28;20042;-74
2022/06/22 00:10:31;;;;;;;11.77;6.28;;;;;;;10.62;100.00;100944.63;5005084;28;20503;-74
2022/06/22 00:12:59;;;;;;;12.30;6.03;;;;;;;10.58;100.00;100948.59;5005523;28;20041;-73
2022/06/22 00:15:57;;;;;;;13.48;6.50;;;;;;;10.51;100.00;100943.06;5006301;28;20041;-73
2022/06/22 00:18:31;;;;;;;13.45;6.00;;;;;;;10.48;100.00;100945.19;5004930;28;20471;-74
2022/06/22 00:21:20;;;;;;;16.95;7.75;;;;;;;10.48;100.00;100947.88;5011763;28;20120;-73
2022/06/22 00:23:49;;;;;;;9.77;6.22;;;;;;;10.44;100.00;100955.38;5004648;28;20517;-74
2022/06/22 00:26:20;;;;;;;11.98;6.72;;;;;;;10.39;100.00;100951.47;5004872;28;20040;-73
2022/06/22 00:29:17;;;;;;;16.02;6.97;;;;;;;10.36;100.00;100960.63;5004885;28;20034;-74
2022/06/22 00:31:47;;;;;;;18.00;7.25;;;;;;;10.35;100.00;100953.63;4996798;28;20042;-73
2022/06/22 00:34:22;;;;;;;7.93;5.93;;;;;;;10.36;100.00;100963.31;5006214;28;20061;-74
2022/06/22 00:37:02;;;;;;;18.88;7.57;;;;;;;10.25;100.00;100959.00;5004576;28;20045;-74
2022/06/22 00:39:28;;;;;;;8.60;6.00;;;;;;;10.21;100.00;100943.47;5004774;28;20029;-74
2022/06/22 00:42:21;;;;;;;14.87;6.43;;;;;;;10.28;100.00;100941.88;5004556;28;20386;-74
2022/06/22 00:44:52;;;;;;;8.88;6.35;;;;;;;10.18;100.00;100947.28;5003808;28;20049;-74
2022/06/22 00:47:40;;;;;;;9.25;7.00;;;;;;;10.19;100.00;100948.16;5004135;28;20041;-74
2022/06/22 00:50:19;;;;;;;12.25;6.90;;;;;;;10.15;100.00;100951.09;5004589;28;20033;-75
2022/06/22 00:52:49;;;;;;;12.90;6.95;;;;;;;10.12;100.00;100959.44;5004415;28;20108;-74
2022/06/22 00:55:26;;;;;;;9.93;6.50;;;;;;;10.08;100.00;100952.72;5005928;28;20120;-74
2022/06/22 00:58:02;;;;;;;11.63;6.80;;;;;;;10.02;100.00;100948.00;4987847;28;20508;-74
2022/06/22 01:00:32;;;;;;;8.45;7.20;;;;;;;10.02;100.00;100945.34;5004089;28;20030;-73
2022/06/22 01:03:05;;;;;;;12.27;7.40;;;;;;;10.01;100.00;100940.16;5005589;28;20140;-74
2022/06/22 01:05:41;;;;;;;11.15;6.93;;;;;;;9.98;100.00;100940.47;5017747;28;20953;-74
2022/06/22 01:08:19;;;;;;;9.82;7.55;;;;;;;9.94;100.00;100955.94;5005077;28;20543;-74
2022/06/22 01:10:58;;;;;;;16.35;7.50;;;;;;;9.93;100.00;100954.28;5004300;28;20104;-73
2022/06/22 01:13:33;;;;;;;8.45;6.22;;;;;;;9.93;100.00;100956.94;5004379;28;20046;-73
2022/06/22 01:16:04;;;;;;;12.57;6.88;;;;;;;9.92;100.00;100952.56;5005542;28;20407;-73
2022/06/22 01:18:40;;;;;;;15.40;7.32;;;;;;;9.91;100.00;100956.25;5000507;28;20030;-73
2022/06/22 01:21:22;;;;;;;9.65;7.00;;;;;;;9.88;100.00;100943.19;5005086;28;20545;-73
2022/06/22 01:24:03;;;;;;;12.45;7.85;;;;;;;9.96;100.00;100951.28;4990688;28;20157;-73
2022/06/22 01:26:49;;;;;;;12.35;7.53;;;;;;;9.88;100.00;100943.19;5003933;28;20042;-73
2022/06/22 01:29:21;;;;;;;13.57;8.00;;;;;;;9.88;100.00;100948.53;5005201;28;20050;-73
2022/06/22 01:32:04;;;;;;;14.90;9.55;;;;;;;9.93;100.00;100959.59;5005610;28;20387;-73
2022/06/22 01:34:44;;;;;;;13.23;7.78;;;;;;;9.94;100.00;100961.25;5001745;28;20037;-73
2022/06/22 01:37:15;;;;;;;14.77;8.45;;;;;;;9.97;100.00;100966.28;5004920;28;20042;-73
2022/06/22 01:39:41;;;;;;;15.25;7.85;;;;;;;9.98;100.00;100965.31;5003823;28;20045;-74
2022/06/22 01:42:26;;;;;;;12.70;8.00;;;;;;;9.97;100.00;100955.63;4994243;28;20116;-73
2022/06/22 01:45:00;;;;;;;12.77;8.35;;;;;;;9.99;100.00;100956.31;5003847;28;20145;-73
2022/06/22 01:47:34;;;;;;;21.85;8.77;;;;;;;10.05;100.00;100958.38;5003985;28;20497;-75
2022/06/22 01:50:00;;;;;;;14.55;7.72;;;;;;;10.08;100.00;100968.72;5005180;28;20046;-73
2022/06/22 01:52:47;;;;;;;12.30;9.53;;;;;;;10.08;100.00;100967.88;5005059;28;20028;-74
2022/06/22 01:55:33;;;;;;;15.40;8.80;;;;;;;10.12;100.00;100975.44;5003721;28;20034;-74
2022/06/22 01:58:22;;;;;;;14.90;8.45;;;;;;;10.09;100.00;100966.88;5000771;28;20466;-74
2022/06/22 02:01:03;;;;;;;11.40;7.78;;;;;;;10.14;100.00;100967.28;4987137;28;20045;-74
2022/06/22 02:03:36;;;;;;;12.35;8.85;;;;;;;10.14;100.00;100962.78;4987540;28;20188;-74
2022/06/22 02:08:59;;;;;;;10.65;8.30;;;;;;;10.10;100.00;100969.41;5004431;28;20034;-74
2022/06/22 02:11:27;;;;;;;18.23;8.95;;;;;;;10.08;100.00;100974.06;5003664;28;20034;-74
2022/06/22 02:14:03;;;;;;;11.93;9.73;;;;;;;10.04;100.00;100971.84;5003700;28;20443;-75
2022/06/22 02:16:45;;;;;;;13.63;7.70;;;;;;;10.00;100.00;100959.84;5005237;28;20352;-74
2022/06/22 02:19:15;;;;;;;19.05;9.02;;;;;;;9.98;100.00;100951.97;5004556;28;20479;-75
2022/06/22 02:21:49;;;;;;;14.98;8.48;;;;;;;9.97;100.00;100955.63;5003493;28;20125;-74
2022/06/22 02:24:29;;;;;;;15.05;8.68;;;;;;;9.88;100.00;100952.06;5003588;28;20037;-74
2022/06/22 02:27:04;;;;;;;14.57;7.70;;;;;;;9.80;100.00;100937.81;5000727;28;20854;-75
2022/06/22 02:29:34;;;;;;;11.57;7.07;;;;;;;9.75;100.00;100934.75;5003103;28;20046;-74
2022/06/22 02:32:04;;;;;;;11.75;8.02;;;;;;;9.71;100.00;100929.72;5003830;28;20030;-75
2022/06/22 02:34:32;;;;;;;9.77;7.38;;;;;;;9.66;100.00;100933.84;5001131;28;20383;-75
2022/06/22 02:37:00;;;;;;;10.38;7.95;;;;;;;9.62;100.00;100935.13;5003115;28;20072;-75
2022/06/22 02:39:29;;;;;;;12.18;7.55;;;;;;;9.59;100.00;100925.59;5007379;28;20030;-75
2022/06/22 02:44:42;;;;;;;14.20;8.02;;;;;;;9.61;100.00;100936.13;5008065;28;20256;-74
2022/06/22 02:47:10;;;;;;;15.90;8.02;;;;;;;9.63;100.00;100932.31;5007588;28;20053;-75
2022/06/22 02:49:42;;;;;;;14.50;8.52;;;;;;;9.64;100.00;100941.97;5005891;28;20061;-75
2022/06/22 02:52:11;;;;;;;10.73;7.45;;;;;;;9.64;100.00;100947.31;5008116;28;20483;-75
2022/06/22 02:54:44;;;;;;;11.95;8.07;;;;;;;9.66;100.00;100948.00;5007887;28;20018;-74
2022/06/22 02:57:20;;;;;;;11.07;8.02;;;;;;;9.69;100.00;100953.06;5007593;28;20040;-75
2022/06/22 02:59:48;;;;;;;13.93;7.93;;;;;;;9.79;100.00;100952.97;5006533;28;20030;-75
2022/06/22 03:02:16;;;;;;;13.82;8.23;;;;;;;9.90;100.00;100942.09;5007506;28;20148;-74
2022/06/22 03:04:44;;;;;;;14.43;8.75;;;;;;;10.08;100.00;100952.72;5007452;28;20110;-75
2022/06/22 03:07:09;;;;;;;15.93;9.68;;;;;;;10.21;100.00;100959.47;5007774;28;20025;-74
2022/06/22 03:09:37;;;;;;;17.90;11.67;;;;;;;10.35;100.00;100966.97;5006397;28;20030;-75
2022/06/22 03:12:03;;;;;;;15.57;10.60;;;;;;;10.49;100.00;100977.09;5006403;28;20022;-75
2022/06/22 03:14:38;;;;;;;21.10;12.20;;;;;;;10.55;100.00;100971.09;4998226;28;20499;-74
2022/06/22 03:17:10;;;;;;;17.65;13.18;;;;;;;10.58;100.00;100969.94;4996655;28;20034;-75
2022/06/22 03:19:35;;;;;;;16.95;10.18;;;;;;;10.65;100.00;100978.16;4989558;28;20037;-75
2022/06/22 03:22:01;;;;;;;19.27;10.10;;;;;;;10.71;100.00;100974.88;5006337;28;20048;-75
2022/06/22 03:24:51;;;;;;;17.38;11.00;;;;;;;10.75;100.00;100976.25;5005900;28;20088;-76
2022/06/22 03:27:40;;;;;;;28.67;12.85;;;;;;;10.92;100.00;100971.81;5005923;28;20150;-75
2022/06/22 03:30:17;;;;;;;23.02;12.93;;;;;;;10.98;100.00;100969.38;5002455;28;20466;-75
2022/06/22 03:33:05;;;;;;;18.00;12.13;;;;;;;11.06;100.00;100959.72;5005489;28;20502;-75
2022/06/22 03:35:37;;;;;;;18.90;11.98;;;;;;;11.11;100.00;100965.41;5005881;28;20042;-75
2022/06/22 03:38:12;;;;;;;26.60;12.93;;;;;;;11.13;100.00;100960.75;5005694;28;20450;-76
2022/06/22 03:40:46;;;;;;;21.75;12.05;;;;;;;11.14;100.00;100957.06;4994065;28;20049;-75
2022/06/22 03:43:22;;;;;;;23.02;11.90;;;;;;;11.18;100.00;100955.75;5005700;28;20038;-75
2022/06/22 03:45:53;;;;;;;25.58;13.60;;;;;;;11.21;100.00;100960.75;5007064;28;20233;-75
2022/06/22 03:48:44;;;;;;;17.20;10.18;;;;;;;11.11;100.00;100955.53;4989079;28;20046;-75
2022/06/22 03:51:17;;;;;;;26.30;13.98;;;;;;;11.20;100.00;100948.41;5005456;28;20121;-74
2022/06/22 03:54:12;;;;;;;30.10;14.63;;;;;;;11.32;100.00;100962.31;5011146;28;20029;-74
2022/06/22 03:56:41;;;;;;;28.30;15.55;;;;;;;11.41;100.00;100959.50;5005593;28;20400;-75
2022/06/22 03:59:08;;;;;;;33.72;15.52;;;;;;;11.44;100.00;100961.00;5004983;28;20030;-75
2022/06/22 04:01:34;;;;;;;;;;;;;;;11.57;100.00;100957.88;5009981;28;20034;-74
2022/06/22 04:04:00;;;;;;;29.95;14.75;;;;;;;11.57;100.00;100964.06;5005276;28;19948;-74
2022/06/22 04:06:32;;;;;;;30.75;15.18;;;;;;;11.62;100.00;100967.06;5006867;28;20473;-74
2022/06/22 04:09:07;;;;;;;36.17;15.38;;;;;;;11.57;100.00;100958.72;5011975;28;20091;-75
2022/06/22 04:11:40;;;;;;;28.63;15.30;;;;;;;11.61;100.00;100959.19;5003385;28;20034;-75
2022/06/22 04:14:22;;;;;;;31.40;15.80;;;;;;;11.65;100.00;100962.41;4995899;28;20030;-75
2022/06/22 04:16:53;;;;;;;36.03;17.85;;;;;;;11.66;100.00;100958.72;5005027;28;20184;-76
2022/06/22 04:19:31;;;;;;;26.08;14.15;;;;;;;11.87;100.00;100967.16;5006044;28;20475;-76
2022/06/22 04:22:02;;;;;;;25.67;15.07;;;;;;;11.88;100.00;100978.69;5006174;28;20399;-76
2022/06/22 04:24:42;;;;;;;28.85;15.35;;;;;;;11.88;100.00;100973.34;5006241;28;20040;-76
2022/06/22 04:27:14;;;;;;;28.33;15.15;;;;;;;11.78;100.00;100985.00;5006154;28;20030;-76
2022/06/22 04:29:59;;;;;;;25.20;15.23;;;;;;;11.77;100.00;100977.94;5004815;28;20682;-75
2022/06/22 04:32:42;;;;;;;28.38;16.10;;;;;;;11.78;100.00;100974.28;5004672;28;20034;-76
2022/06/22 04:35:25;;;;;;;30.48;15.55;;;;;;;11.63;100.00;100959.88;5006180;28;20113;-76
2022/06/22 04:37:57;;;;;;;31.95;16.45;;;;;;;11.70;100.00;100970.75;5004564;28;20156;-76
2022/06/22 04:40:31;;;;;;;29.83;16.00;;;;;;;11.83;100.00;100979.16;5005694;28;20439;-75
2022/06/22 04:43:03;;;;;;;38.28;17.45;;;;;;;11.67;100.00;100981.78;5006091;28;20261;-75
2022/06/22 04:45:38;;;;;;;32.35;18.42;;;;;;;11.69;100.00;100987.81;5004732;28;20395;-76
2022/06/22 04:48:11;;;;;;;32.65;16.42;;;;;;;11.68;100.00;100984.28;5004616;28;20041;-76
2022/06/22 04:50:40;;;;;;;31.35;17.05;;;;;;;11.68;100.00;100978.09;5006058;28;20034;-76
2022/06/22 04:53:14;;;;;;;34.88;17.60;;;;;;;11.66;100.00;100978.28;5004482;28;20025;-75
2022/06/22 04:55:41;;;;;;;32.22;18.35;;;;;;;11.79;100.00;100988.50;5004769;28;20042;-76
2022/06/22 04:58:16;;;;;;;;;;;;;;;11.84;100.00;100984.31;5006349;28;20379;-75
2022/06/22 05:00:46;;;;;;;30.83;16.50;;;;;;;11.91;100.00;100989.03;5003452;28;19997;-75
2022/06/22 05:03:14;;;;;;;33.08;16.95;;;;;;;11.77;100.00;100987.81;5005647;28;20030;-75
2022/06/22 05:05:39;;;;;;;29.73;17.20;;;;;;;11.90;100.00;100993.56;5004282;28;20442;-75
2022/06/22 05:08:31;;;;;;;28.60;15.05;;;;;;;11.93;100.00;100987.88;5005456;28;20415;-75
2022/06/22 05:11:03;;;;;;;33.72;17.55;;;;;;;12.12;100.00;100992.06;5005566;28;20049;-75
2022/06/22 05:13:40;;;;;;;40.00;17.48;;;;;;;12.08;100.00;100979.19;4997782;28;20034;-75
2022/06/22 05:16:11;;;;;;;33.90;15.82;;;;;;;12.09;100.00;100975.53;5003734;28;20045;-75
2022/06/22 05:18:39;;;;;;;29.38;15.73;;;;;;;12.17;100.00;100967.47;5004174;28;20087;-75
2022/06/22 05:21:39;;;;;;;30.27;16.45;;;;;;;12.28;100.00;100977.03;4987371;28;20030;-76
2022/06/22 05:24:11;;;;;;;34.90;16.42;;;;;;;12.37;100.00;100984.06;5003980;28;20593;-75
2022/06/22 05:26:41;;;;;;;32.28;16.80;;;;;;;12.31;100.00;100976.69;5005080;28;20081;-75
2022/06/22 05:29:12;;;;;;;33.78;15.82;;;;;;;12.38;100.00;100970.47;5005076;28;20056;-75
2022/06/22 05:31:42;;;;;;;22.48;14.30;;;;;;;12.46;100.00;100972.34;5005120;28;20034;-75
2022/06/22 05:34:14;;;;;;;24.08;14.75;;;;;;;12.41;100.00;100966.66;5003944;28;20123;-75
2022/06/22 05:36:48;;;;;;;25.15;14.25;;;;;;;12.38;100.00;100956.25;5005511;28;20477;-76
2022/06/22 05:39:14;;;;;;;31.17;16.00;;;;;;;12.45;100.00;100954.56;5005058;28;20046;-75
2022/06/22 05:41:45;;;;;;;27.50;15.35;;;;;;;12.42;100.00;100954.94;5007662;28;20018;-75
2022/06/22 05:44:13;;;;;;;26.45;15.45;;;;;;;12.51;100.00;100951.22;5004195;28;20041;-75
2022/06/22 05:46:50;;;;;;;25.67;14.50;;;;;;;12.48;100.00;100948.03;4987057;28;20014;-75
2022/06/22 05:49:17;;;;;;;22.50;14.95;;;;;;;12.58;100.00;100956.75;5003238;28;20042;-76
2022/06/22 05:51:53;;;;;;;30.60;15.23;;;;;;;12.73;100.00;100967.59;4987210;28;20017;-75
2022/06/22 05:54:33;;;;;;;26.50;16.85;;;;;;;12.61;100.00;100969.78;4987736;28;20044;-75
2022/06/22 05:57:20;;;;;;;25.65;16.25;;;;;;;12.63;100.00;100971.28;5003870;28;20041;-75
2022/06/22 05:59:54;;;;;;;26.75;15.27;;;;;;;12.65;100.00;100979.16;4990905;28;20046;-75
2022/06/22 06:02:45;;;;;;;37.05;15.30;;;;;;;12.70;100.00;100990.19;4994244;28;20042;-75
2022/06/22 06:05:29;;;;;;;27.40;15.38;;;;;;;12.76;100.00;100988.66;4985038;28;20042;-75
2022/06/22 06:07:59;;;;;;;23.73;13.90;;;;;;;12.95;100.00;100993.66;5003782;28;20582;-76
2022/06/22 06:10:32;;;;;;;33.28;16.30;;;;;;;12.94;100.00;100994.66;5005194;28;20065;-75
2022/06/22 06:13:11;;;;;;;26.98;15.50;;;;;;;12.94;100.00;100997.34;5005666;28;20483;-75
2022/06/22 06:15:39;;;;;;;30.13;17.05;;;;;;;12.87;100.00;100980.28;5007722;28;20030;-75
2022/06/22 06:18:08;;;;;;;32.50;15.88;;;;;;;12.86;100.00;100983.97;5007311;28;20480;-76
2022/06/22 06:20:40;;;;;;;30.52;14.88;;;;;;;12.95;100.00;100993.66;5008361;28;20044;-75
2022/06/22 06:23:32;;;;;;;33.50;16.67;;;;;;;13.02;100.00;101009.91;4997781;28;20410;-75
2022/06/22 06:28:52;;;;;;;30.10;15.65;;;;;;;13.20;100.00;101006.97;5005543;28;20109;-76
2022/06/22 06:31:31;;;;;;;32.10;16.63;;;;;;;13.23;100.00;101001.28;5007743;28;20033;-75
2022/06/22 06:33:59;;;;;;;27.88;16.30;;;;;;;13.31;100.00;101001.28;5008891;28;20033;-75
2022/06/22 06:36:44;;;;;;;25.73;16.00;;;;;;;13.44;100.00;100982.78;5007452;28;20105;-75
2022/06/22 06:39:15;;;;;;;30.10;16.77;;;;;;;13.60;100.00;100975.63;5008703;28;20395;-75
2022/06/22 06:41:41;;;;;;;22.60;14.68;;;;;;;13.85;100.00;100965.59;5008859;28;20109;-76
2022/06/22 06:44:16;;;;;;;27.13;15.43;;;;;;;13.92;100.00;100950.44;5007587;28;20025;-75
2022/06/22 06:46:54;;;;;;;30.38;17.08;;;;;;;14.11;100.00;100933.00;5007012;28;20033;-75
2022/06/22 06:49:28;;;;;;;35.47;14.80;;;;;;;14.07;100.00;100913.75;5006060;28;20924;-75
2022/06/22 06:52:01;;;;;;;22.42;14.80;;;;;;;13.97;100.00;100915.00;5006418;28;20424;-75
2022/06/22 06:54:54;;;;;;;29.02;15.10;;;;;;;13.78;100.00;100930.56;5007651;28;20026;-75
2022/06/22 06:57:20;;;;;;;33.67;15.60;;;;;;;13.96;100.00;100940.19;5008795;28;20826;-75
2022/06/22 06:59:51;;;;;;;28.52;14.98;;;;;;;14.21;100.00;100951.53;5007117;28;20014;-74
2022/06/22 07:02:22;;;;;;;23.50;13.60;;;;;;;14.64;100.00;100947.31;5007339;28;20116;-75
2022/06/22 07:04:49;;;;;;;24.20;12.93;;;;;;;15.07;100.00;100938.56;5007257;28;20083;-76
2022/06/22 07:07:33;;;;;;;24.42;14.13;;;;;;;15.30;100.00;100900.78;5007243;28;20022;-75
2022/06/22 07:10:06;;;;;;;25.02;11.82;;;;;;;15.24;100.00;100869.28;5015416;28;20038;-75
2022/06/22 07:12:43;;;;;;;22.70;14.23;;;;;;;15.26;100.00;100805.38;4999583;28;20022;-75
2022/06/22 07:15:14;;;;;;;;;;;;;;;15.63;100.00;100797.00;5008884;28;20513;-76
2022/06/22 07:17:40;;;;;;;19.60;12.05;;;;;;;16.94;100.00;100803.63;4997860;28;19920;-75
2022/06/22 07:20:23;;;;;;;21.25;13.43;;;;;;;16.67;100.00;100746.91;5006221;28;20021;-77
2022/06/22 07:23:00;;;;;;;18.52;12.55;;;;;;;16.69;100.00;100758.28;5007373;28;20034;-76
2022/06/22 07:25:48;;;;;;;20.55;12.32;;;;;;;17.01;100.00;100729.78;5007017;28;20503;-76
2022/06/22 07:28:25;;;;;;;20.80;12.60;;;;;;;16.88;100.00;100682.06;5010725;28;20119;-75
2022/06/22 07:30:56;;;;;;;20.10;11.63;;;;;;;16.90;100.00;100729.53;5005482;28;20506;-76
2022/06/22 07:33:33;;;;;;;23.90;11.95;;;;;;;18.65;100.00;100736.16;5007005;28;20116;-75
2022/06/22 07:36:14;;;;;;;17.55;9.07;;;;;;;19.64;100.00;100679.63;4986695;28;20041;-76
2022/06/22 07:38:49;;;;;;;20.25;10.75;;;;;;;19.32;100.00;100562.53;5007175;28;20059;-78
2022/06/22 07:41:18;;;;;;;22.30;11.43;;;;;;;18.65;100.00;100437.91;5028111;28;20042;-76
2022/06/22 07:43:51;;;;;;;17.27;10.25;;;;;;;18.41;100.00;100575.56;5011031;28;20040;-78
2022/06/22 07:46:32;;;;;;;24.10;10.98;;;;;;;17.63;100.00;100680.97;5011717;28;20030;-76
2022/06/22 07:49:12;;;;;;;17.60;12.63;;;;;;;17.21;100.00;100697.44;5015700;28;20030;-79
2022/06/22 07:51:48;;;;;;;20.95;13.05;;;;;;;16.91;100.00;100748.22;5010554;28;20539;-78
2022/06/22 07:54:28;;;;;;;18.50;13.30;;;;;;;17.05;100.00;100827.31;5009931;28;20037;-78
2022/06/22 07:57:16;;;;;;;17.25;10.75;;;;;;;17.70;100.00;100798.75;5009414;28;20499;-78
2022/06/22 07:59:47;;;;;;;23.20;11.50;;;;;;;17.57;100.00;100696.16;5011013;28;20037;-76
2022/06/22 08:02:21;;;;;;;23.40;11.43;;;;;;;17.55;100.00;100776.50;5011679;28;20100;-77
2022/06/22 08:04:59;;;;;;;29.42;11.82;;;;;;;18.08;100.00;100817.00;5012802;28;20479;-78
2022/06/22 08:07:33;;;;;;;25.00;13.52;;;;;;;18.97;100.00;100706.47;5011172;28;20045;-75
2022/06/22 08:10:08;;;;;;;21.08;11.88;;;;;;;19.28;100.00;100594.63;5011359;28;20352;-79
2022/06/22 08:12:58;;;;;;;24.45;12.18;;;;;;;19.26;100.00;100547.19;5023809;28;20494;-76
2022/06/22 08:15:24;;;;;;;19.67;11.20;;;;;;;18.92;100.00;100647.59;5010162;28;20037;-77
2022/06/22 08:17:55;;;;;;;17.20;9.93;;;;;;;18.24;100.00;100621.19;4998282;28;20183;-76
2022/06/22 08:20:25;;;;;;;16.08;10.25;;;;;;;17.78;100.00;100669.97;5012153;28;20419;-78
2022/06/22 08:22:53;;;;;;;20.15;10.32;;;;;;;18.17;100.00;100769.00;4994257;28;20049;-78
2022/06/22 08:25:21;;;;;;;14.60;9.82;;;;;;;18.56;100.00;100799.63;5009589;28;20466;-77
2022/06/22 08:27:47;;;;;;;13.77;8.20;;;;;;;19.15;100.00;100654.28;4989912;28;20034;-76
2022/06/22 08:30:14;;;;;;;18.23;9.17;;;;;;;20.32;100.00;100624.47;5005674;28;20065;-77
2022/06/22 08:32:45;;;;;;;23.65;9.32;;;;;;;19.80;100.00;100472.38;5008115;28;20371;-75
2022/06/22 08:35:31;;;;;;;13.23;8.00;;;;;;;19.42;100.00;100622.38;5005938;28;20042;-77
2022/06/22 08:38:10;;;;;;;;;;;;;;;19.71;100.00;100701.25;4988531;28;20137;-76
2022/06/22 08:41:04;;;;;;;22.65;9.93;;;;;;;20.01;100.00;100484.59;5004612;28;20366;-77
2022/06/22 08:43:32;;;;;;;16.08;8.52;;;;;;;20.78;100.00;100473.75;5002198;28;20033;-76
2022/06/22 08:46:19;;;;;;;22.92;9.38;;;;;;;20.29;100.00;100439.75;5004588;28;20041;-76
2022/06/22 08:49:13;;;;;;;13.25;7.57;;;;;;;19.74;100.00;100478.75;5005707;28;20046;-76
2022/06/22 08:52:12;;;;;;;13.32;7.38;;;;;;;20.32;100.00;100616.34;5004372;28;20034;-76
2022/06/22 08:55:00;;;;;;;19.00;9.00;;;;;;;20.38;100.00;100424.81;5006926;28;20509;-76
2022/06/22 08:58:03;;;;;;;15.85;7.50;;;;;;;19.95;100.00;100453.84;5006557;28;20064;-77
2022/06/22 09:00:36;;;;;;;16.83;7.80;;;;;;;19.96;100.00;100476.34;4991271;28;20088;-78
2022/06/22 09:03:43;;;;;;;12.60;7.85;;;;;;;18.86;100.00;100461.84;5005610;28;20026;-77
2022/06/22 09:06:20;;;;;;;23.20;9.38;;;;;;;19.98;100.00;100659.28;4945467;28;20468;-78
2022/06/22 09:09:01;;;;;;;14.52;6.97;;;;;;;20.27;100.00;100534.03;5007936;28;20428;-78
2022/06/22 09:11:29;;;;;;;13.00;7.32;;;;;;;20.51;100.00;100448.97;5006282;28;20065;-77
2022/06/22 09:13:54;;;;;;;15.63;6.45;;;;;;;21.04;100.00;100591.84;5004421;28;20033;-76
2022/06/22 09:17:02;;;;;;;9.80;6.23;;;;;;;21.60;92.56;100455.66;5006665;28;20038;-78
2022/06/22 09:20:03;;;;;;;11.25;6.55;;;;;;;20.43;100.00;100433.03;4988471;28;20104;-77
2022/06/22 09:22:49;;;;;;;14.70;6.20;;;;;;;21.59;91.38;100437.75;5005845;28;20040;-76
2022/06/22 09:25:25;;;;;;;11.82;6.47;;;;;;;21.75;95.44;100542.91;5004685;28;20602;-76
2022/06/22 09:28:09;;;;;;;9.35;6.65;;;;;;;21.19;89.99;100359.81;5004566;28;20741;-76
2022/06/22 09:30:56;;;;;;;15.75;7.93;;;;;;;21.88;86.70;100417.59;5025627;23;20040;-74
2022/06/22 09:33:39;;;;;;;20.48;7.53;;;;;;;21.86;82.96;100311.03;5026941;28;20064;-74
2022/06/22 09:36:25;;;;;;;13.82;7.78;;;;;;;21.33;84.39;100268.03;5020441;28;20041;-74
2022/06/22 09:39:16;;;;;;;12.70;6.05;;;;;;;22.09;81.93;100412.53;5023264;28;20684;-74
2022/06/22 09:42:16;;;;;;;13.55;6.95;;;;;;;21.14;89.64;100405.84;5003353;28;20123;-74
2022/06/22 09:45:10;;;;;;;18.88;6.95;;;;;;;21.61;87.87;100460.03;5001256;28;20057;-74
2022/06/22 09:47:58;;;;;;;10.48;5.80;;;;;;;21.81;93.82;100596.28;5017899;28;20022;-74
2022/06/22 09:51:01;;;;;;;14.70;7.57;;;;;;;21.81;86.77;100478.63;5008988;28;20545;-74
2022/06/22 09:53:45;;;;;;;12.38;5.97;;;;;;;22.49;88.46;100650.91;5008331;28;20030;-74
2022/06/22 09:56:24;;;;;;;11.38;6.25;;;;;;;22.89;77.65;100467.59;5006765;28;20069;-74
2022/06/22 09:58:58;;;;;;;19.80;6.93;;;;;;;23.58;74.31;100503.41;5007862;28;20426;-74
2022/06/22 10:01:53;;;;;;;14.27;5.60;;;;;;;23.96;64.96;100310.81;5008820;28;20056;-74
2022/06/22 10:04:52;;;;;;;12.80;5.78;;;;;;;24.01;62.78;100253.56;5007962;28;20041;-74
2022/06/22 10:07:43;;;;;;;9.82;5.15;;;;;;;23.13;70.43;100338.38;5008967;28;20038;-74
2022/06/22 10:10:37;;;;;;;12.70;5.68;;;;;;;23.43;68.98;100344.38;5005384;28;20042;-74
2022/06/22 10:13:24;;;;;;;17.33;6.60;;;;;;;21.82;74.61;100197.66;4999707;28;20050;-74
2022/06/22 10:16:15;;;;;;;11.27;5.60;;;;;;;22.47;73.98;100283.13;5008371;28;20654;-74
2022/06/22 10:19:08;;;;;;;9.70;4.95;;;;;;;22.27;76.61;100349.75;5009119;28;20091;-74
2022/06/22 10:21:36;;;;;;;15.57;6.25;;;;;;;21.70;79.39;100317.31;4987761;28;20410;-74
2022/06/22 10:24:08;;;;;;;14.55;5.38;;;;;;;23.01;75.51;100492.84;5007320;28;20058;-74
2022/06/22 10:26:51;;;;;;;9.65;5.22;;;;;;;22.40;72.96;100279.78;5001089;28;20112;-74
2022/06/22 10:29:47;;;;;;;9.68;5.22;;;;;;;22.45;76.95;100413.09;5008423;28;20038;-74
2022/06/22 10:32:22;;;;;;;8.25;5.00;;;;;;;23.15;67.43;100321.78;5005263;28;20398;-74
2022/06/22 10:34:50;;;;;;;10.65;4.95;;;;;;;23.14;66.63;100276.56;5008822;28;20049;-75
2022/06/22 10:37:53;;;;;;;13.18;4.72;;;;;;;22.70;69.49;100285.59;5007970;28;20059;-74
2022/06/22 10:46:28;;;;;;;10.18;5.03;;;;;;;21.95;78.30;100403.03;5005242;28;20045;-74
2022/06/22 10:49:15;;;;;;;8.38;4.50;;;;;;;21.45;78.95;100315.81;4987491;28;20034;-74
2022/06/22 10:52:07;;;;;;;8.23;5.07;;;;;;;21.39;86.67;100468.81;5007331;28;20029;-74
2022/06/22 10:54:57;;;;;;;9.77;5.28;;;;;;;21.57;85.95;100486.03;4967727;28;20053;-74
2022/06/22 10:57:26;;;;;;;9.18;4.65;;;;;;;21.41;87.47;100477.59;5007943;28;20034;-74
2022/06/22 11:00:14;;;;;;;9.45;3.97;;;;;;;21.40;89.56;100510.41;4989414;28;20033;-74
2022/06/22 11:02:49;;;;;;;9.55;5.05;;;;;;;21.50;93.99;100582.06;5008340;28;20030;-74
2022/06/22 11:05:43;;;;;;;11.18;4.93;;;;;;;21.21;88.28;100439.13;4996624;28;20301;-74
2022/06/22 11:08:20;;;;;;;10.40;4.82;;;;;;;21.33;85.81;100411.94;4989902;28;20053;-75
2022/06/22 11:10:56;;;;;;;8.50;5.13;;;;;;;20.86;100.00;100649.78;5007765;28;20541;-74
2022/06/22 11:13:54;;;;;;;13.57;5.13;;;;;;;21.40;95.93;100579.13;5005497;28;20088;-74
2022/06/22 11:16:46;;;;;;;7.82;4.65;;;;;;;20.99;96.84;100499.47;5005213;28;20045;-74
2022/06/22 11:19:17;;;;;;;8.32;4.65;;;;;;;21.31;100.00;100661.16;4997325;28;20065;-74
2022/06/22 11:22:04;;;;;;;8.13;4.65;;;;;;;21.47;94.76;100560.81;5005960;28;20030;-74
2022/06/22 11:24:39;;;;;;;9.80;4.78;;;;;;;21.50;98.68;100633.66;5002775;28;20037;-74
2022/06/22 11:33:14;;;;;;;7.07;4.38;;;;;;;21.08;97.53;100533.31;5007412;28;20046;-74
2022/06/22 11:35:54;;;;;;;9.52;4.80;;;;;;;21.17;99.05;100581.84;5005123;28;20053;-74
2022/06/22 11:38:32;;;;;;;8.93;4.25;;;;;;;20.98;100.00;100609.09;5012759;28;20033;-74
2022/06/22 11:41:34;;;;;;;6.93;4.18;;;;;;;21.24;100.00;100631.41;5005478;28;20076;-74
2022/06/22 11:44:19;;;;;;;6.43;4.03;;;;;;;21.52;91.80;100507.66;5015034;28;20066;-75
2022/06/22 11:46:52;;;;;;;12.02;5.13;;;;;;;21.24;98.09;100560.81;4998858;28;20525;-76
2022/06/22 11:49:30;;;;;;;9.85;4.30;;;;;;;20.87;96.98;100485.91;5012703;28;20038;-77
2022/06/22 11:52:36;;;;;;;7.20;3.88;;;;;;;21.02;100.00;100653.66;5005765;28;20045;-76
2022/06/22 11:55:35;;;;;;;7.03;4.35;;;;;;;20.69;100.00;100520.47;5002613;28;20042;-77
2022/06/22 11:58:22;;;;;;;6.40;3.90;;;;;;;21.03;100.00;100601.06;5001429;28;20050;-76
2022/06/22 12:01:15;;;;;;;8.05;4.25;;;;;;;20.72;100.00;100476.59;5005545;28;20034;-76
2022/06/22 12:04:07;;;;;;;9.57;5.45;;;;;;;20.68;100.00;100581.22;5004711;28;20038;-77
2022/06/22 12:06:57;;;;;;;9.23;4.20;;;;;;;21.93;100.00;100790.03;4998268;28;20390;-76
2022/06/22 12:09:55;;;;;;;9.82;4.05;;;;;;;22.11;95.13;100600.69;5003999;28;20034;-77
2022/06/22 12:12:32;;;;;;;9.98;4.43;;;;;;;22.15;89.53;100487.66;5002011;28;20046;-76
2022/06/22 12:15:09;;;;;;;7.40;3.22;;;;;;;22.04;90.61;100508.41;5005484;28;20053;-76
2022/06/22 12:17:56;;;;;;;6.72;3.00;;;;;;;22.44;87.35;100518.34;5018216;28;20076;-75
2022/06/22 12:20:30;;;;;;;11.48;4.05;;;;;;;22.05;85.03;100412.19;5006192;28;20328;-76